createdAt,value
2022-10-11T00:00:27.634Z,14.52
2022-10-11T00:01:29.495Z,14.52
2022-10-11T00:02:31.369Z,14.49
2022-10-11T00:03:33.265Z,14.48
2022-10-11T00:04:35.074Z,14.48
2022-10-11T00:05:37.213Z,14.48
2022-10-11T00:06:39.237Z,14.48
2022-10-11T00:07:41.100Z,14.49
2022-10-11T00:08:42.951Z,14.50
2022-10-11T00:09:45.152Z,14.50
2022-10-11T00:10:56.319Z,14.50
2022-10-11T00:11:58.151Z,14.49
2022-10-11T00:12:59.926Z,14.50
2022-10-11T00:14:01.765Z,14.49
2022-10-11T00:15:04.656Z,14.51
2022-10-11T00:16:12.598Z,14.51
2022-10-11T00:17:14.906Z,14.48
2022-10-11T00:18:16.757Z,14.45
2022-10-11T00:19:18.816Z,14.45
2022-10-11T00:20:21.107Z,14.45
2022-10-11T00:21:23.126Z,14.48
2022-10-11T00:22:25.083Z,14.49
2022-10-11T00:23:26.958Z,14.50
2022-10-11T00:24:28.856Z,14.52
2022-10-11T00:25:30.672Z,14.49
2022-10-11T00:26:32.421Z,14.46
2022-10-11T00:27:34.348Z,14.43
2022-10-11T00:28:36.857Z,14.42
2022-10-11T00:29:38.840Z,14.42
2022-10-11T00:30:42.463Z,14.43
2022-10-11T00:31:44.215Z,14.42
2022-10-11T00:32:46.075Z,14.43
2022-10-11T00:33:47.930Z,14.44
2022-10-11T00:34:49.790Z,14.46
2022-10-11T00:35:51.698Z,14.47
2022-10-11T00:36:53.441Z,14.45
2022-10-11T00:37:56.509Z,14.39
2022-10-11T00:38:59.207Z,14.38
2022-10-11T00:40:01.045Z,14.37
2022-10-11T00:41:02.841Z,14.33
2022-10-11T00:42:04.679Z,14.33
2022-10-11T00:43:15.326Z,14.34
2022-10-11T00:44:21.671Z,14.36
2022-10-11T00:45:32.316Z,14.36
2022-10-11T00:46:34.185Z,14.36
2022-10-11T00:47:36.026Z,14.38
2022-10-11T00:48:42.574Z,14.39
2022-10-11T00:49:46.177Z,14.42
2022-10-11T00:50:47.978Z,14.39
2022-10-11T00:51:55.464Z,14.36
2022-10-11T00:52:58.724Z,14.30
2022-10-11T00:54:01.999Z,14.26
2022-10-11T00:55:06.781Z,14.28
2022-10-11T00:56:13.925Z,14.29
2022-10-11T00:57:19.128Z,14.30
2022-10-11T00:58:21.740Z,14.30
2022-10-11T00:59:25.598Z,14.29
2022-10-11T01:00:27.562Z,14.29
2022-10-11T01:01:29.453Z,14.28
2022-10-11T01:02:31.286Z,14.30
2022-10-11T01:03:33.735Z,14.31
2022-10-11T01:04:35.716Z,14.34
2022-10-11T01:05:39.133Z,14.37
2022-10-11T01:06:41.606Z,14.38
2022-10-11T01:07:43.528Z,14.38
2022-10-11T01:08:45.616Z,14.37
2022-10-11T01:09:47.450Z,14.40
2022-10-11T01:10:49.606Z,14.40
2022-10-11T01:11:52.471Z,14.40
2022-10-11T01:13:02.206Z,14.42
2022-10-11T01:14:11.664Z,14.45
2022-10-11T01:15:13.367Z,14.47
2022-10-11T01:16:24.307Z,14.48
2022-10-11T01:17:40.626Z,14.52
2022-10-11T01:18:45.244Z,14.50
2022-10-11T01:19:46.967Z,14.48
2022-10-11T01:21:00.139Z,14.45
2022-10-11T01:22:07.638Z,14.42
2022-10-11T01:23:09.442Z,14.40
2022-10-11T01:24:26.705Z,14.39
2022-10-11T01:25:47.211Z,14.37
2022-10-11T01:27:06.990Z,14.38
2022-10-11T01:28:08.797Z,14.38
2022-10-11T01:29:16.675Z,14.34
2022-10-11T01:30:25.867Z,14.33
2022-10-11T01:31:36.450Z,14.37
2022-10-11T01:32:44.011Z,14.38
2022-10-11T01:33:51.098Z,14.39
2022-10-11T01:35:04.283Z,14.40
2022-10-11T01:36:14.857Z,14.44
2022-10-11T01:37:22.378Z,14.43
2022-10-11T01:38:35.211Z,14.42
2022-10-11T01:39:48.740Z,14.40
2022-10-11T01:40:52.761Z,14.36
2022-10-11T01:41:56.295Z,14.37
2022-10-11T01:42:59.103Z,14.38
2022-10-11T01:44:01.862Z,14.41
2022-10-11T01:45:04.837Z,14.41
2022-10-11T01:46:08.882Z,14.42
2022-10-11T01:47:11.046Z,14.43
2022-10-11T01:48:13.695Z,14.44
2022-10-11T01:49:15.446Z,14.47
2022-10-11T01:50:50.061Z,14.48
2022-10-11T01:51:54.718Z,14.50
2022-10-11T01:52:59.326Z,14.50
2022-10-11T01:54:07.111Z,14.53
2022-10-11T01:55:26.906Z,14.52
2022-10-11T01:56:47.121Z,14.53
2022-10-11T01:58:07.601Z,14.53
2022-10-11T01:59:12.252Z,14.54
2022-10-11T02:00:21.985Z,14.54
2022-10-11T02:01:23.794Z,14.54
2022-10-11T02:02:44.415Z,14.54
2022-10-11T02:03:49.572Z,14.53
2022-10-11T02:04:56.484Z,14.52
2022-10-11T02:06:04.642Z,14.53
2022-10-11T02:07:12.217Z,14.54
2022-10-11T02:08:22.247Z,14.56
2022-10-11T02:09:24.638Z,14.56
2022-10-11T02:10:35.557Z,14.58
2022-10-11T02:11:38.123Z,14.58
2022-10-11T02:13:12.385Z,14.58
2022-10-11T02:14:18.986Z,14.58
2022-10-11T02:15:22.296Z,14.56
2022-10-11T02:16:27.656Z,14.57
2022-10-11T02:17:34.876Z,14.57
2022-10-11T02:18:40.228Z,14.53
2022-10-11T02:19:44.918Z,14.51
2022-10-11T02:20:47.468Z,14.52
2022-10-11T02:21:52.741Z,14.52
2022-10-11T02:23:00.373Z,14.50
2022-10-11T02:24:11.030Z,14.52
2022-10-11T02:25:15.507Z,14.52
2022-10-11T02:26:18.495Z,14.49
2022-10-11T02:27:23.080Z,14.48
2022-10-11T02:28:27.289Z,14.47
2022-10-11T02:29:32.036Z,14.50
2022-10-11T02:30:34.984Z,14.52
2022-10-11T02:31:37.532Z,14.54
2022-10-11T02:32:41.963Z,14.54
2022-10-11T02:33:50.601Z,14.50
2022-10-11T02:34:56.062Z,14.51
2022-10-11T02:36:01.087Z,14.50
2022-10-11T02:37:14.924Z,14.50
2022-10-11T02:38:22.042Z,14.52
2022-10-11T02:39:30.698Z,14.50
2022-10-11T02:40:33.696Z,14.48
2022-10-11T02:41:39.678Z,14.47
2022-10-11T02:42:49.000Z,14.48
2022-10-11T02:44:00.134Z,14.49
2022-10-11T02:45:08.075Z,14.50
2022-10-11T02:46:10.718Z,14.51
2022-10-11T02:47:13.371Z,14.52
2022-10-11T02:48:15.934Z,14.54
2022-10-11T02:49:18.618Z,14.54
2022-10-11T02:50:22.963Z,14.52
2022-10-11T02:51:25.577Z,14.52
2022-10-11T02:52:27.943Z,14.54
2022-10-11T02:53:30.085Z,14.53
2022-10-11T02:54:32.171Z,14.52
2022-10-11T02:55:34.118Z,14.50
2022-10-11T02:56:35.855Z,14.51
2022-10-11T02:57:37.741Z,14.50
2022-10-11T02:58:39.587Z,14.52
2022-10-11T02:59:41.478Z,14.54
2022-10-11T03:00:43.561Z,14.54
2022-10-11T03:01:45.436Z,14.53
2022-10-11T03:02:47.304Z,14.52
2022-10-11T03:03:49.146Z,14.52
2022-10-11T03:04:51.041Z,14.53
2022-10-11T03:05:58.044Z,14.53
2022-10-11T03:06:59.862Z,14.54
2022-10-11T03:08:01.634Z,14.54
2022-10-11T03:09:03.532Z,14.54
2022-10-11T03:10:06.041Z,14.54
2022-10-11T03:11:07.819Z,14.50
2022-10-11T03:12:09.717Z,14.46
2022-10-11T03:13:15.978Z,14.44
2022-10-11T03:14:19.870Z,14.44
2022-10-11T03:15:21.679Z,14.44
2022-10-11T03:16:23.548Z,14.42
2022-10-11T03:17:36.030Z,14.43
2022-10-11T03:18:38.278Z,14.44
2022-10-11T03:19:40.183Z,14.44
2022-10-11T03:20:42.044Z,14.44
2022-10-11T03:21:43.976Z,14.43
2022-10-11T03:22:45.790Z,14.42
2022-10-11T03:23:47.578Z,14.42
2022-10-11T03:24:49.376Z,14.43
2022-10-11T03:25:52.301Z,14.43
2022-10-11T03:26:54.157Z,14.44
2022-10-11T03:27:55.942Z,14.45
2022-10-11T03:28:57.716Z,14.47
2022-10-11T03:29:59.834Z,14.49
2022-10-11T03:31:01.719Z,14.50
2022-10-11T03:32:03.658Z,14.52
2022-10-11T03:33:05.471Z,14.52
2022-10-11T03:34:08.007Z,14.53
2022-10-11T03:35:10.126Z,14.51
2022-10-11T03:36:11.976Z,14.48
2022-10-11T03:37:13.987Z,14.46
2022-10-11T03:38:19.873Z,14.47
2022-10-11T03:39:21.862Z,14.47
2022-10-11T03:40:23.739Z,14.47
2022-10-11T03:41:25.624Z,14.47
2022-10-11T03:42:27.530Z,14.49
2022-10-11T03:43:29.443Z,14.46
2022-10-11T03:44:31.302Z,14.44
2022-10-11T03:45:33.309Z,14.43
2022-10-11T03:46:35.104Z,14.44
2022-10-11T03:47:39.580Z,14.44
2022-10-11T03:48:41.496Z,14.44
2022-10-11T03:49:43.903Z,14.43
2022-10-11T03:50:45.716Z,14.44
2022-10-11T03:51:47.536Z,14.45
2022-10-11T03:52:49.416Z,14.44
2022-10-11T03:53:51.219Z,14.44
2022-10-11T03:54:53.167Z,14.46
2022-10-11T03:55:56.102Z,14.43
2022-10-11T03:56:58.774Z,14.43
2022-10-11T03:58:00.724Z,14.44
2022-10-11T03:59:02.518Z,14.43
2022-10-11T04:00:05.723Z,14.44
2022-10-11T04:01:07.799Z,14.44
2022-10-11T04:02:09.649Z,14.45
2022-10-11T04:03:11.562Z,14.46
2022-10-11T04:04:13.348Z,14.47
2022-10-11T04:05:15.196Z,14.47
2022-10-11T04:06:17.060Z,14.46
2022-10-11T04:07:19.033Z,14.46
2022-10-11T04:08:21.007Z,14.43
2022-10-11T04:09:22.824Z,14.40
2022-10-11T04:10:24.778Z,14.38
2022-10-11T04:11:27.282Z,14.38
2022-10-11T04:12:29.337Z,14.38
2022-10-11T04:13:31.604Z,14.39
2022-10-11T04:14:33.427Z,14.41
2022-10-11T04:15:36.556Z,14.39
2022-10-11T04:16:38.980Z,14.39
2022-10-11T04:17:41.385Z,14.37
2022-10-11T04:18:43.211Z,14.38
2022-10-11T04:19:45.095Z,14.39
2022-10-11T04:20:46.957Z,14.40
2022-10-11T04:21:49.411Z,14.39
2022-10-11T04:22:51.209Z,14.37
2022-10-11T04:23:53.040Z,14.36
2022-10-11T04:24:54.854Z,14.35
2022-10-11T04:25:57.665Z,14.33
2022-10-11T04:26:59.647Z,14.32
2022-10-11T04:28:01.467Z,14.33
2022-10-11T04:29:03.294Z,14.32
2022-10-11T04:30:05.326Z,14.34
2022-10-11T04:31:08.217Z,14.32
2022-10-11T04:32:10.157Z,14.30
2022-10-11T04:33:12.339Z,14.31
2022-10-11T04:34:14.284Z,14.30
2022-10-11T04:35:16.232Z,14.28
2022-10-11T04:36:18.052Z,14.22
2022-10-11T04:37:19.927Z,14.21
2022-10-11T04:38:22.123Z,14.17
2022-10-11T04:39:24.003Z,14.14
2022-10-11T04:40:25.879Z,14.15
2022-10-11T04:41:28.074Z,14.14
2022-10-11T04:42:29.832Z,14.13
2022-10-11T04:43:31.677Z,14.13
2022-10-11T04:44:33.562Z,14.12
2022-10-11T04:45:35.499Z,14.13
2022-10-11T04:46:37.310Z,14.13
2022-10-11T04:47:40.698Z,14.13
2022-10-11T04:48:42.573Z,14.12
2022-10-11T04:49:44.448Z,14.13
2022-10-11T04:50:46.384Z,14.11
2022-10-11T04:51:48.245Z,14.10
2022-10-11T04:52:50.113Z,14.12
2022-10-11T04:53:51.937Z,14.12
2022-10-11T04:54:53.765Z,14.13
2022-10-11T04:56:01.552Z,14.14
2022-10-11T04:57:03.798Z,14.13
2022-10-11T04:58:05.621Z,14.14
2022-10-11T04:59:07.575Z,14.14
2022-10-11T05:00:09.789Z,14.13
2022-10-11T05:01:11.816Z,14.14
2022-10-11T05:02:13.727Z,14.14
2022-10-11T05:03:15.615Z,14.12
2022-10-11T05:04:17.420Z,14.11
2022-10-11T05:05:19.204Z,14.09
2022-10-11T05:06:21.004Z,14.09
2022-10-11T05:07:22.884Z,14.06
2022-10-11T05:08:24.867Z,14.03
2022-10-11T05:09:26.703Z,14.04
2022-10-11T05:10:28.465Z,14.05
2022-10-11T05:11:30.268Z,14.04
2022-10-11T05:12:32.097Z,14.03
2022-10-11T05:13:34.890Z,14.04
2022-10-11T05:14:36.751Z,14.05
2022-10-11T05:15:38.591Z,14.05
2022-10-11T05:16:40.484Z,14.06
2022-10-11T05:17:42.204Z,14.07
2022-10-11T05:18:44.165Z,14.06
2022-10-11T05:19:46.073Z,14.06
2022-10-11T05:20:48.354Z,14.05
2022-10-11T05:21:50.253Z,14.05
2022-10-11T05:22:52.069Z,14.05
2022-10-11T05:23:56.281Z,14.04
2022-10-11T05:24:58.092Z,14.03
2022-10-11T05:26:00.187Z,14.01
2022-10-11T05:27:03.475Z,14.00
2022-10-11T05:28:05.585Z,13.98
2022-10-11T05:29:07.469Z,14.00
2022-10-11T05:30:09.579Z,14.01
2022-10-11T05:31:11.566Z,14.01
2022-10-11T05:32:13.307Z,13.98
2022-10-11T05:33:15.303Z,13.99
2022-10-11T05:34:17.171Z,13.98
2022-10-11T05:35:18.962Z,13.99
2022-10-11T05:36:20.808Z,13.99
2022-10-11T05:37:23.139Z,13.95
2022-10-11T05:38:25.131Z,13.95
2022-10-11T05:39:27.005Z,13.95
2022-10-11T05:40:28.938Z,13.94
2022-10-11T05:41:30.843Z,13.94
2022-10-11T05:42:32.681Z,13.93
2022-10-11T05:43:34.506Z,13.93
2022-10-11T05:44:36.419Z,13.94
2022-10-11T05:45:39.092Z,13.94
2022-10-11T05:46:41.112Z,13.94
2022-10-11T05:47:42.973Z,13.94
2022-10-11T05:48:44.881Z,13.92
2022-10-11T05:49:48.684Z,13.91
2022-10-11T05:50:50.860Z,13.91
2022-10-11T05:51:52.729Z,13.91
2022-10-11T05:52:54.680Z,13.93
2022-10-11T05:53:56.582Z,13.95
2022-10-11T05:54:58.486Z,13.95
2022-10-11T05:56:00.519Z,13.92
2022-10-11T05:57:02.320Z,13.90
2022-10-11T05:58:04.430Z,13.90
2022-10-11T05:59:06.569Z,13.92
2022-10-11T06:00:08.805Z,13.92
2022-10-11T06:01:21.315Z,13.91
2022-10-11T06:02:23.179Z,13.89
2022-10-11T06:03:25.170Z,13.89
2022-10-11T06:04:27.244Z,13.89
2022-10-11T06:05:28.997Z,13.89
2022-10-11T06:06:30.808Z,13.90
2022-10-11T06:07:32.837Z,13.89
2022-10-11T06:08:34.978Z,13.88
2022-10-11T06:09:36.759Z,13.86
2022-10-11T06:10:39.033Z,13.85
2022-10-11T06:11:41.687Z,13.85
2022-10-11T06:12:43.549Z,13.87
2022-10-11T06:13:45.399Z,13.86
2022-10-11T06:14:47.222Z,13.86
2022-10-11T06:15:49.093Z,13.84
2022-10-11T06:16:50.910Z,13.82
2022-10-11T06:17:53.250Z,13.81
2022-10-11T06:18:55.546Z,13.82
2022-10-11T06:19:57.383Z,13.82
2022-10-11T06:20:59.803Z,13.83
2022-10-11T06:22:01.696Z,13.82
2022-10-11T06:23:03.532Z,13.83
2022-10-11T06:24:05.812Z,13.84
2022-10-11T06:25:07.842Z,13.84
2022-10-11T06:26:10.868Z,13.82
2022-10-11T06:27:12.742Z,13.78
2022-10-11T06:28:14.724Z,13.79
2022-10-11T06:29:16.613Z,13.77
2022-10-11T06:30:18.568Z,13.77
2022-10-11T06:31:20.359Z,13.77
2022-10-11T06:32:22.352Z,13.77
2022-10-11T06:33:24.777Z,13.79
2022-10-11T06:34:26.612Z,13.81
2022-10-11T06:35:28.444Z,13.82
2022-10-11T06:36:30.383Z,13.82
2022-10-11T06:37:32.158Z,13.83
2022-10-11T06:38:34.009Z,13.87
2022-10-11T06:39:35.874Z,13.90
2022-10-11T06:40:37.692Z,13.91
2022-10-11T06:41:39.634Z,13.90
2022-10-11T06:42:41.397Z,13.94
2022-10-11T06:43:43.257Z,13.95
2022-10-11T06:44:45.027Z,13.97
2022-10-11T06:45:46.787Z,13.98
2022-10-11T06:46:48.898Z,13.98
2022-10-11T06:47:50.741Z,13.99
2022-10-11T06:48:52.700Z,14.00
2022-10-11T06:49:54.456Z,13.99
2022-10-11T06:51:00.270Z,13.97
2022-10-11T06:52:02.699Z,13.96
2022-10-11T06:53:05.080Z,13.98
2022-10-11T06:54:06.963Z,13.98
2022-10-11T06:55:08.971Z,13.99
2022-10-11T06:56:12.147Z,13.98
2022-10-11T06:57:14.509Z,13.99
2022-10-11T06:58:16.295Z,14.01
2022-10-11T06:59:18.215Z,14.02
2022-10-11T07:00:20.033Z,14.01
2022-10-11T07:01:23.968Z,14.00
2022-10-11T07:02:26.060Z,14.00
2022-10-11T07:03:28.559Z,14.00
2022-10-11T07:04:30.504Z,14.01
2022-10-11T07:05:32.828Z,13.99
2022-10-11T07:06:37.386Z,13.99
2022-10-11T07:07:39.217Z,14.00
2022-10-11T07:08:41.397Z,14.03
2022-10-11T07:09:43.312Z,13.99
2022-10-11T07:10:45.037Z,14.00
2022-10-11T07:11:48.749Z,14.02
2022-10-11T07:12:50.565Z,14.04
2022-10-11T07:13:55.571Z,14.04
2022-10-11T07:14:57.518Z,14.05
2022-10-11T07:16:03.423Z,14.05
2022-10-11T07:17:05.894Z,14.08
2022-10-11T07:18:07.723Z,14.09
2022-10-11T07:19:10.128Z,14.11
2022-10-11T07:20:12.632Z,14.16
2022-10-11T07:21:15.910Z,14.21
2022-10-11T07:22:17.932Z,14.27
2022-10-11T07:23:20.134Z,14.28
2022-10-11T07:24:22.101Z,14.30
2022-10-11T07:25:23.913Z,14.33
2022-10-11T07:26:25.880Z,14.32
2022-10-11T07:27:27.910Z,14.32
2022-10-11T07:28:30.859Z,14.32
2022-10-11T07:29:32.726Z,14.32
2022-10-11T07:30:36.033Z,14.32
2022-10-11T07:31:39.100Z,14.34
2022-10-11T07:32:40.927Z,14.37
2022-10-11T07:33:42.777Z,14.39
2022-10-11T07:34:44.678Z,14.42
2022-10-11T07:35:48.620Z,14.45
2022-10-11T07:36:50.773Z,14.46
2022-10-11T07:37:52.579Z,14.49
2022-10-11T07:38:54.671Z,14.55
2022-10-11T07:39:56.450Z,14.60
2022-10-11T07:40:58.912Z,14.64
2022-10-11T07:42:00.812Z,14.71
2022-10-11T07:43:02.676Z,14.75
2022-10-11T07:44:04.692Z,14.83
2022-10-11T07:45:06.851Z,14.90
2022-10-11T07:46:09.421Z,14.93
2022-10-11T07:47:11.988Z,14.98
2022-10-11T07:48:14.131Z,15.04
2022-10-11T07:49:16.028Z,15.10
2022-10-11T07:50:17.976Z,15.15
2022-10-11T07:51:21.260Z,15.19
2022-10-11T07:52:23.129Z,15.25
2022-10-11T07:53:24.923Z,15.29
2022-10-11T07:54:27.061Z,15.36
2022-10-11T07:55:30.617Z,15.42
2022-10-11T07:56:32.507Z,15.47
2022-10-11T07:57:34.294Z,15.54
2022-10-11T07:58:36.471Z,15.60
2022-10-11T07:59:38.284Z,15.64
2022-10-11T08:00:42.900Z,15.68
2022-10-11T08:01:44.860Z,15.70
2022-10-11T08:02:46.746Z,15.74
2022-10-11T08:03:49.023Z,15.77
2022-10-11T08:04:50.830Z,15.85
2022-10-11T08:05:52.873Z,15.93
2022-10-11T08:06:54.984Z,15.96
2022-10-11T08:07:57.067Z,16.03
2022-10-11T08:09:00.336Z,16.06
2022-10-11T08:10:02.195Z,16.09
2022-10-11T08:11:04.542Z,16.14
2022-10-11T08:12:06.676Z,16.14
2022-10-11T08:13:08.529Z,16.13
2022-10-11T08:14:11.611Z,16.12
2022-10-11T08:15:13.458Z,16.07
2022-10-11T08:16:15.292Z,16.02
2022-10-11T08:17:17.215Z,16.01
2022-10-11T08:18:19.240Z,16.01
2022-10-11T08:19:21.074Z,16.00
2022-10-11T08:20:23.002Z,15.98
2022-10-11T08:21:24.925Z,15.98
2022-10-11T08:22:26.843Z,16.00
2022-10-11T08:23:28.696Z,16.01
2022-10-11T08:24:34.635Z,16.01
2022-10-11T08:25:40.722Z,16.02
2022-10-11T08:26:42.702Z,16.03
2022-10-11T08:27:44.780Z,16.05
2022-10-11T08:28:46.945Z,16.04
2022-10-11T08:29:48.814Z,16.05
2022-10-11T08:30:51.475Z,16.07
2022-10-11T08:31:53.285Z,16.07
2022-10-11T08:32:55.348Z,16.07
2022-10-11T08:33:57.461Z,16.05
2022-10-11T08:34:59.437Z,16.06
2022-10-11T08:36:04.445Z,16.07
2022-10-11T08:37:06.659Z,16.10
2022-10-11T08:38:08.517Z,16.12
2022-10-11T08:39:10.261Z,16.13
2022-10-11T08:40:15.489Z,16.16
2022-10-11T08:41:32.628Z,16.17
2022-10-11T08:42:47.034Z,16.15
2022-10-11T08:43:55.047Z,16.15
2022-10-11T08:45:10.954Z,16.16
2022-10-11T08:46:15.463Z,16.16
2022-10-11T08:47:23.156Z,16.16
2022-10-11T08:48:41.880Z,16.15
2022-10-11T08:49:44.127Z,16.13
2022-10-11T08:50:50.003Z,16.14
2022-10-11T08:52:00.254Z,16.12
2022-10-11T08:53:11.841Z,16.09
2022-10-11T08:54:13.668Z,16.08
2022-10-11T08:55:34.040Z,16.10
2022-10-11T08:56:38.036Z,16.11
2022-10-11T08:57:40.707Z,16.14
2022-10-11T08:58:49.707Z,16.15
2022-10-11T08:59:53.675Z,16.18
2022-10-11T09:00:56.861Z,16.18
2022-10-11T09:02:18.023Z,16.17
2022-10-11T09:03:22.885Z,16.19
2022-10-11T09:04:24.744Z,16.18
2022-10-11T09:05:31.398Z,16.18
2022-10-11T09:06:45.144Z,16.17
2022-10-11T09:07:57.140Z,16.16
2022-10-11T09:09:01.897Z,16.17
2022-10-11T09:10:03.665Z,16.18
2022-10-11T09:11:32.737Z,16.18
2022-10-11T09:12:39.794Z,16.19
2022-10-11T09:14:03.890Z,16.19
2022-10-11T09:15:29.566Z,16.16
2022-10-11T09:16:46.297Z,16.18
2022-10-11T09:17:57.297Z,16.17
2022-10-11T09:19:11.527Z,16.16
2022-10-11T09:20:31.673Z,16.16
2022-10-11T09:21:45.825Z,16.19
2022-10-11T09:22:57.171Z,16.19
2022-10-11T09:24:06.543Z,16.20
2022-10-11T09:25:08.302Z,16.25
2022-10-11T09:26:14.279Z,16.25
2022-10-11T09:27:57.806Z,16.28
2022-10-11T09:29:10.990Z,16.28
2022-10-11T09:30:14.997Z,16.31
2022-10-11T09:31:17.733Z,16.35
2022-10-11T09:32:24.179Z,16.39
2022-10-11T09:33:41.196Z,16.44
2022-10-11T09:34:43.716Z,16.49
2022-10-11T09:35:49.841Z,16.53
2022-10-11T09:36:57.616Z,16.56
2022-10-11T09:38:02.261Z,16.56
2022-10-11T09:39:22.494Z,16.56
2022-10-11T09:40:43.165Z,16.58
2022-10-11T09:41:44.970Z,16.58
2022-10-11T09:42:46.757Z,16.60
2022-10-11T09:43:50.169Z,16.60
2022-10-11T09:44:52.161Z,16.62
2022-10-11T09:45:54.113Z,16.58
2022-10-11T09:46:57.556Z,16.60
2022-10-11T09:48:00.972Z,16.61
2022-10-11T09:49:09.990Z,16.58
2022-10-11T09:50:16.324Z,16.57
2022-10-11T09:51:22.163Z,16.58
2022-10-11T09:52:24.757Z,16.62
2022-10-11T09:53:58.802Z,16.60
2022-10-11T09:55:01.562Z,16.58
2022-10-11T09:56:04.470Z,16.59
2022-10-11T09:57:07.753Z,16.59
2022-10-11T09:58:30.557Z,16.56
2022-10-11T09:59:33.668Z,16.55
2022-10-11T10:00:35.604Z,16.55
2022-10-11T10:01:37.693Z,16.57
2022-10-11T10:02:40.900Z,16.59
2022-10-11T10:03:43.822Z,16.60
2022-10-11T10:04:54.633Z,16.59
2022-10-11T10:06:07.625Z,16.57
2022-10-11T10:07:13.115Z,16.57
2022-10-11T10:08:15.015Z,16.60
2022-10-11T10:09:19.688Z,16.64
2022-10-11T10:10:41.217Z,16.66
2022-10-11T10:11:43.255Z,16.68
2022-10-11T10:12:45.059Z,16.70
2022-10-11T10:13:46.964Z,16.71
2022-10-11T10:15:08.427Z,16.73
2022-10-11T10:16:22.041Z,16.74
2022-10-11T10:17:23.820Z,16.77
2022-10-11T10:18:30.347Z,16.76
2022-10-11T10:19:43.752Z,16.77
2022-10-11T10:20:51.192Z,16.78
2022-10-11T10:21:54.182Z,16.77
2022-10-11T10:22:56.708Z,16.78
2022-10-11T10:24:03.702Z,16.79
2022-10-11T10:25:08.468Z,16.80
2022-10-11T10:26:10.307Z,16.78
2022-10-11T10:27:14.994Z,16.78
2022-10-11T10:28:24.332Z,16.78
2022-10-11T10:29:26.223Z,16.79
2022-10-11T10:30:30.778Z,16.78
2022-10-11T10:31:49.436Z,16.78
2022-10-11T10:32:58.230Z,16.77
2022-10-11T10:34:00.664Z,16.78
2022-10-11T10:35:08.513Z,16.77
2022-10-11T10:36:16.066Z,16.79
2022-10-11T10:37:25.738Z,16.80
2022-10-11T10:38:27.974Z,16.81
2022-10-11T10:39:29.786Z,16.82
2022-10-11T10:40:37.757Z,16.81
2022-10-11T10:41:39.652Z,16.82
2022-10-11T10:42:41.572Z,16.83
2022-10-11T10:43:46.039Z,16.85
2022-10-11T10:44:51.344Z,16.86
2022-10-11T10:46:02.227Z,16.88
2022-10-11T10:47:07.063Z,16.89
2022-10-11T10:48:08.928Z,16.91
2022-10-11T10:50:56.184Z,16.95
2022-10-11T10:52:20.034Z,16.95
2022-10-11T10:53:26.577Z,16.98
2022-10-11T10:54:40.823Z,16.99
2022-10-11T10:55:45.150Z,17.00
2022-10-11T10:56:57.705Z,17.00
2022-10-11T10:58:18.993Z,17.02
2022-10-11T10:59:39.067Z,17.05
2022-10-11T11:00:46.277Z,17.05
2022-10-11T11:01:56.177Z,17.04
2022-10-11T11:03:02.357Z,17.05
2022-10-11T11:04:10.027Z,17.06
2022-10-11T11:05:23.718Z,17.07
2022-10-11T11:06:25.453Z,17.10
2022-10-11T11:07:31.930Z,17.11
2022-10-11T11:08:42.912Z,17.13
2022-10-11T11:10:03.846Z,17.17
2022-10-11T11:11:18.221Z,17.18
2022-10-11T11:12:22.823Z,17.18
2022-10-11T11:13:37.962Z,17.19
2022-10-11T11:14:58.275Z,17.21
2022-10-11T11:16:02.928Z,17.22
2022-10-11T11:17:07.981Z,17.22
2022-10-11T11:18:12.893Z,17.23
2022-10-11T11:19:27.405Z,17.25
2022-10-11T11:20:37.659Z,17.25
2022-10-11T11:21:48.532Z,17.27
2022-10-11T11:22:53.321Z,17.29
2022-10-11T11:24:21.536Z,17.31
2022-10-11T11:25:44.809Z,17.32
2022-10-11T11:26:46.965Z,17.34
2022-10-11T11:27:56.484Z,17.34
2022-10-11T11:29:03.738Z,17.36
2022-10-11T11:30:09.693Z,17.36
2022-10-11T11:31:28.100Z,17.36
2022-10-11T11:32:45.680Z,17.37
2022-10-11T11:34:05.483Z,17.37
2022-10-11T11:35:15.334Z,17.38
2022-10-11T11:36:23.096Z,17.37
2022-10-11T11:37:45.723Z,17.38
2022-10-11T11:38:53.036Z,17.40
2022-10-11T11:39:58.009Z,17.42
2022-10-11T11:41:02.857Z,17.43
2022-10-11T11:42:08.963Z,17.45
2022-10-11T11:43:19.747Z,17.47
2022-10-11T11:44:30.741Z,17.46
2022-10-11T11:45:51.429Z,17.45
2022-10-11T11:46:57.586Z,17.45
2022-10-11T11:48:02.461Z,17.47
2022-10-11T11:49:13.065Z,17.48
2022-10-11T11:50:25.467Z,17.50
2022-10-11T11:51:37.964Z,17.51
2022-10-11T11:52:41.461Z,17.52
2022-10-11T11:53:59.535Z,17.54
2022-10-11T11:55:19.959Z,17.54
2022-10-11T11:56:28.206Z,17.53
2022-10-11T11:57:44.153Z,17.52
2022-10-11T11:58:51.672Z,17.52
2022-10-11T11:59:59.989Z,17.52
2022-10-11T12:01:06.028Z,17.52
2022-10-11T12:02:26.021Z,17.51
2022-10-11T12:03:30.038Z,17.52
2022-10-11T12:04:35.032Z,17.53
2022-10-11T12:05:37.233Z,17.54
2022-10-11T12:06:47.914Z,17.55
2022-10-11T12:08:08.675Z,17.59
2022-10-11T12:09:22.606Z,17.59
2022-10-11T12:10:26.626Z,17.59
2022-10-11T12:11:40.836Z,17.60
2022-10-11T12:12:43.137Z,17.61
2022-10-11T12:13:46.780Z,17.61
2022-10-11T12:14:48.914Z,17.62
2022-10-11T12:16:13.137Z,17.63
2022-10-11T12:17:17.462Z,17.65
2022-10-11T12:18:20.789Z,17.67
2022-10-11T12:19:23.032Z,17.69
2022-10-11T12:20:24.755Z,17.68
2022-10-11T12:21:35.160Z,17.70
2022-10-11T12:22:55.733Z,17.70
2022-10-11T12:24:17.734Z,17.71
2022-10-11T12:25:22.505Z,17.73
2022-10-11T12:26:43.801Z,17.72
2022-10-11T12:27:47.268Z,17.72
2022-10-11T12:29:27.445Z,17.73
2022-10-11T12:30:48.496Z,17.73
2022-10-11T12:31:50.627Z,17.70
2022-10-11T12:32:53.039Z,17.71
2022-10-11T12:34:04.142Z,17.73
2022-10-11T12:35:24.816Z,17.73
2022-10-11T12:36:32.782Z,17.74
2022-10-11T12:37:37.776Z,17.73
2022-10-11T12:38:40.396Z,17.72
2022-10-11T12:39:43.820Z,17.72
2022-10-11T12:40:47.462Z,17.71
2022-10-11T12:41:53.841Z,17.71
2022-10-11T12:43:09.974Z,17.71
2022-10-11T12:44:23.984Z,17.70
2022-10-11T12:45:30.149Z,17.71
2022-10-11T12:46:31.920Z,17.68
2022-10-11T12:47:48.716Z,17.69
2022-10-11T12:49:14.292Z,17.68
2022-10-11T12:50:45.047Z,17.68
2022-10-11T12:51:50.199Z,17.69
2022-10-11T12:53:10.083Z,17.67
2022-10-11T12:54:30.044Z,17.69
2022-10-11T12:55:42.902Z,17.68
2022-10-11T12:56:44.813Z,17.70
2022-10-11T12:57:55.749Z,17.71
2022-10-11T12:59:06.503Z,17.69
2022-10-11T13:00:18.306Z,17.69
2022-10-11T13:01:25.978Z,17.68
2022-10-11T13:02:35.460Z,17.68
2022-10-11T13:03:40.459Z,17.70
2022-10-11T13:04:42.234Z,17.70
2022-10-11T13:05:52.463Z,17.70
2022-10-11T13:06:57.282Z,17.69
2022-10-11T13:08:03.097Z,17.69
2022-10-11T13:09:10.826Z,17.70
2022-10-11T13:10:17.258Z,17.69
2022-10-11T13:11:21.459Z,17.70
2022-10-11T13:12:23.905Z,17.70
2022-10-11T13:13:34.702Z,17.70
2022-10-11T13:14:59.531Z,17.67
2022-10-11T13:16:04.936Z,17.65
2022-10-11T13:17:16.054Z,17.65
2022-10-11T13:18:18.807Z,17.63
2022-10-11T13:19:22.571Z,17.63
2022-10-11T13:20:25.499Z,17.60
2022-10-11T13:21:36.459Z,17.63
2022-10-11T13:22:41.319Z,17.65
2022-10-11T13:23:43.115Z,17.65
2022-10-11T13:24:45.069Z,17.66
2022-10-11T13:25:47.211Z,17.67
2022-10-11T13:26:50.794Z,17.66
2022-10-11T13:27:53.918Z,17.69
2022-10-11T13:28:55.890Z,17.71
2022-10-11T13:30:02.374Z,17.72
2022-10-11T13:31:05.813Z,17.73
2022-10-11T13:32:16.636Z,17.72
2022-10-11T13:33:23.952Z,17.75
2022-10-11T13:34:25.932Z,17.76
2022-10-11T13:35:32.031Z,17.78
2022-10-11T13:36:33.989Z,17.81
2022-10-11T13:37:42.655Z,17.83
2022-10-11T13:38:51.235Z,17.78
2022-10-11T13:39:54.157Z,17.78
2022-10-11T13:40:57.380Z,17.78
2022-10-11T13:42:00.486Z,17.81
2022-10-11T13:43:02.958Z,17.83
2022-10-11T13:44:04.981Z,17.85
2022-10-11T13:45:10.522Z,17.83
2022-10-11T13:46:17.768Z,17.82
2022-10-11T13:47:23.044Z,17.81
2022-10-11T13:48:28.129Z,17.79
2022-10-11T13:49:38.885Z,17.84
2022-10-11T13:50:42.578Z,17.87
2022-10-11T13:51:44.399Z,17.82
2022-10-11T13:52:56.957Z,17.80
2022-10-11T13:54:00.213Z,17.85
2022-10-11T13:55:04.962Z,17.89
2022-10-11T13:56:08.332Z,17.92
2022-10-11T13:57:12.013Z,17.92
2022-10-11T13:58:35.625Z,17.95
2022-10-11T13:59:42.863Z,17.97
2022-10-11T14:00:53.728Z,17.97
2022-10-11T14:01:59.076Z,17.99
2022-10-11T14:03:04.123Z,17.99
2022-10-11T14:04:07.792Z,18.00